Time;durP1;ratioP1;P1;durP2;ratioP2;P2;SDS_P1;SDS_P2;PMS_P1;PMS_P2;Temp;Humidity;BMP_temperature;BMP_pressure;BME280_temperature;BME280_humidity;BME280_pressure;Samples;Min_cycle;Max_cycle;Signal;HPM_P1;HPM_P2
2022/10/19 00:01:16;;;;;;;28.58;5.40;;;11.10;99.90;;;;;;5034000;28;20065;-71
2022/10/19 00:03:45;;;;;;;35.65;5.22;;;11.10;99.90;;;;;;5034235;28;20385;-71
2022/10/19 00:06:15;;;;;;;32.33;5.90;;;11.00;99.90;;;;;;5014870;28;20041;-71
2022/10/19 00:08:42;;;;;;;52.33;6.10;;;11.00;99.90;;;;;;5013435;28;20440;-71
2022/10/19 00:11:08;;;;;;;40.95;7.93;;;11.00;99.90;;;;;;5031899;28;20021;-71
2022/10/19 00:13:34;;;;;;;27.25;4.57;;;11.10;99.90;;;;;;5033239;28;20028;-71
2022/10/19 00:16:00;;;;;;;36.03;6.82;;;11.10;99.90;;;;;;5022699;28;20393;-70
2022/10/19 00:18:25;;;;;;;35.45;4.88;;;11.10;99.90;;;;;;5014795;28;20026;-70
2022/10/19 00:20:51;;;;;;;26.10;4.35;;;11.10;99.90;;;;;;5020537;28;20021;-70
2022/10/19 00:23:16;;;;;;;27.20;5.10;;;11.10;99.90;;;;;;5033096;28;20099;-71
2022/10/19 00:25:42;;;;;;;65.25;8.88;;;11.10;99.90;;;;;;5027358;28;20512;-71
2022/10/19 00:28:07;;;;;;;53.95;8.25;;;11.10;99.90;;;;;;5014603;28;20030;-71
2022/10/19 00:30:37;;;;;;;34.88;6.28;;;11.10;99.90;;;;;;5015042;28;20029;-70
2022/10/19 00:33:03;;;;;;;43.40;5.30;;;11.10;99.90;;;;;;5014720;28;20076;-70
2022/10/19 00:35:29;;;;;;;34.88;6.38;;;11.10;99.90;;;;;;5014351;28;20500;-70
2022/10/19 00:37:54;;;;;;;36.75;5.43;;;11.10;99.90;;;;;;5016997;28;20037;-71
2022/10/19 00:40:20;;;;;;;45.22;6.25;;;11.10;99.90;;;;;;5014350;28;20061;-70
2022/10/19 00:42:46;;;;;;;30.17;5.35;;;11.10;99.90;;;;;;5022891;28;20033;-71
2022/10/19 00:45:16;;;;;;;56.50;10.88;;;11.00;99.90;;;;;;5034232;28;20021;-70
2022/10/19 00:47:43;;;;;;;38.90;5.65;;;11.00;99.90;;;;;;5029196;28;20030;-71
2022/10/19 00:50:11;;;;;;;80.53;10.82;;;11.00;99.90;;;;;;5013999;28;20045;-71
2022/10/19 00:52:37;;;;;;;55.03;7.10;;;10.90;99.90;;;;;;5016219;28;20080;-70
2022/10/19 00:55:03;;;;;;;39.67;5.38;;;10.90;99.90;;;;;;5014114;28;20433;-70
2022/10/19 00:57:30;;;;;;;44.67;7.35;;;10.80;99.90;;;;;;5014034;28;20040;-70
2022/10/19 00:59:57;;;;;;;34.90;5.82;;;10.80;99.90;;;;;;5016289;28;20030;-70
2022/10/19 01:02:23;;;;;;;58.13;8.95;;;10.70;99.90;;;;;;5029701;28;20032;-71
2022/10/19 01:04:50;;;;;;;54.05;7.68;;;10.70;99.90;;;;;;5033810;28;20033;-70
2022/10/19 01:07:18;;;;;;;49.33;8.52;;;10.60;99.90;;;;;;5018662;28;20030;-70
2022/10/19 01:09:43;;;;;;;47.70;6.70;;;10.50;99.90;;;;;;5013937;28;20385;-71
2022/10/19 01:12:39;;;;;;;69.63;9.23;;;10.30;99.90;;;;;;5019167;28;20029;-71
2022/10/19 01:15:32;;;;;;;46.72;8.75;;;10.10;99.90;;;;;;5033869;28;20370;-70
2022/10/19 01:18:11;;;;;;;46.78;7.82;;;9.90;99.90;;;;;;5032670;28;20104;-71
2022/10/19 01:21:08;;;;;;;49.30;7.50;;;9.80;99.90;;;;;;5016055;28;20018;-71
2022/10/19 01:24:08;;;;;;;72.63;13.65;;;9.70;99.90;;;;;;5032315;28;20407;-71
2022/10/19 01:26:59;;;;;;;30.70;5.03;;;9.60;99.90;;;;;;5031634;28;20075;-71
2022/10/19 01:29:58;;;;;;;39.60;5.85;;;9.40;99.90;;;;;;5017483;28;20021;-71
2022/10/19 01:32:38;;;;;;;50.63;9.40;;;9.30;99.90;;;;;;5033990;28;20384;-71
2022/10/19 01:35:16;;;;;;;39.50;6.45;;;9.20;99.90;;;;;;5037268;28;20484;-71
2022/10/19 01:37:49;;;;;;;46.05;6.13;;;9.10;99.90;;;;;;5037736;28;20025;-71
2022/10/19 01:40:51;;;;;;;26.23;4.28;;;9.10;99.90;;;;;;5038011;28;20010;-70
2022/10/19 01:43:45;;;;;;;24.33;3.22;;;9.10;99.90;;;;;;5023893;28;20516;-71
2022/10/19 01:46:38;;;;;;;40.53;5.50;;;9.00;99.90;;;;;;5029124;28;20029;-70
2022/10/19 01:49:18;;;;;;;32.03;4.90;;;9.00;99.90;;;;;;5032395;28;20026;-71
2022/10/19 01:51:53;;;;;;;26.77;4.10;;;8.90;99.90;;;;;;5021922;28;20025;-71
2022/10/19 01:54:21;;;;;;;12.90;3.40;;;8.80;99.90;;;;;;5037145;28;20036;-71
2022/10/19 01:56:48;;;;;;;49.30;9.05;;;8.70;99.90;;;;;;5018308;28;20026;-70
2022/10/19 01:59:17;;;;;;;68.93;12.05;;;8.60;99.90;;;;;;5017578;28;20488;-71
2022/10/19 02:01:46;;;;;;;46.00;8.88;;;8.50;99.90;;;;;;5035155;28;20111;-71
2022/10/19 02:04:15;;;;;;;67.78;13.82;;;8.40;99.90;;;;;;5037012;28;20396;-70
2022/10/19 02:06:42;;;;;;;76.22;15.50;;;8.30;99.90;;;;;;5034167;28;20033;-71
2022/10/19 02:09:07;;;;;;;102.05;16.80;;;8.30;99.90;;;;;;5036124;28;20362;-71
2022/10/19 02:11:36;;;;;;;81.57;15.65;;;8.20;99.90;;;;;;5017398;28;20080;-71
2022/10/19 02:14:10;;;;;;;65.32;11.93;;;8.30;99.90;;;;;;5016939;28;20028;-70
2022/10/19 02:17:01;;;;;;;52.42;9.63;;;8.30;99.90;;;;;;5017047;28;20014;-71
2022/10/19 02:19:27;;;;;;;48.22;8.07;;;8.20;99.90;;;;;;5035213;28;20085;-71
2022/10/19 02:21:53;;;;;;;70.80;13.50;;;8.00;99.90;;;;;;5034474;28;20486;-71
2022/10/19 02:24:18;;;;;;;72.38;15.82;;;7.90;99.90;;;;;;5037406;28;20037;-71
2022/10/19 02:26:44;;;;;;;49.08;9.00;;;7.90;99.90;;;;;;5035116;28;20033;-71
2022/10/19 02:29:12;;;;;;;29.60;5.00;;;7.90;99.90;;;;;;5030712;28;20037;-71
2022/10/19 02:31:38;;;;;;;31.42;4.95;;;7.80;99.90;;;;;;5017404;28;20026;-71
2022/10/19 02:34:04;;;;;;;25.52;3.08;;;7.90;99.90;;;;;;5018779;28;20029;-71
2022/10/19 02:36:30;;;;;;;21.15;3.90;;;7.90;99.90;;;;;;5016625;28;20604;-71
2022/10/19 02:38:56;;;;;;;30.55;3.92;;;7.90;99.90;;;;;;5017466;28;20053;-71
2022/10/19 02:41:54;;;;;;;28.23;3.75;;;7.90;99.90;;;;;;5016521;28;20032;-71
2022/10/19 02:44:25;;;;;;;58.53;12.32;;;7.80;99.90;;;;;;5023558;28;20041;-71
2022/10/19 02:46:59;;;;;;;56.30;10.70;;;7.70;99.90;;;;;;5035731;28;20021;-71
2022/10/19 02:49:26;;;;;;;118.78;16.90;;;7.70;99.90;;;;;;5031347;28;20120;-71
2022/10/19 02:52:08;;;;;;;60.20;12.07;;;7.80;99.90;;;;;;5036138;28;20448;-71
2022/10/19 02:54:33;;;;;;;64.30;10.10;;;7.90;99.90;;;;;;5017049;28;20030;-71
2022/10/19 02:56:59;;;;;;;51.17;10.48;;;7.80;99.90;;;;;;5016236;28;20389;-71
2022/10/19 02:59:25;;;;;;;51.85;9.40;;;7.80;99.90;;;;;;5015014;28;20034;-71
2022/10/19 03:01:51;;;;;;;65.07;9.48;;;7.70;99.90;;;;;;5016087;28;20026;-71
2022/10/19 03:04:16;;;;;;;75.43;14.75;;;7.60;99.90;;;;;;5025062;28;20032;-71
2022/10/19 03:06:42;;;;;;;106.40;19.70;;;7.70;99.90;;;;;;5035826;28;20104;-71
2022/10/19 03:09:08;;;;;;;104.47;18.98;;;7.70;99.90;;;;;;5032067;28;20045;-72
2022/10/19 03:11:34;;;;;;;60.28;13.63;;;7.80;99.90;;;;;;5014679;28;20038;-72
2022/10/19 03:13:59;;;;;;;82.18;11.73;;;7.80;99.90;;;;;;5016054;28;20116;-71
2022/10/19 03:16:25;;;;;;;49.90;10.52;;;7.70;99.90;;;;;;5030416;28;20064;-71
2022/10/19 03:18:51;;;;;;;55.78;10.20;;;7.60;99.90;;;;;;5035806;28;20033;-71
2022/10/19 03:21:17;;;;;;;53.17;8.32;;;7.50;99.90;;;;;;5026143;28;20029;-71
2022/10/19 03:23:42;;;;;;;36.67;5.55;;;7.30;99.90;;;;;;5017065;28;20033;-71
2022/10/19 03:26:13;;;;;;;27.48;4.10;;;7.30;99.90;;;;;;5015699;28;20034;-71
2022/10/19 03:28:39;;;;;;;26.63;4.65;;;7.20;99.90;;;;;;5035360;28;20032;-71
2022/10/19 03:31:04;;;;;;;39.97;5.95;;;7.30;99.90;;;;;;5035364;28;20369;-71
2022/10/19 03:33:30;;;;;;;44.75;5.07;;;7.50;99.90;;;;;;5030761;28;20018;-71
2022/10/19 03:36:21;;;;;;;34.30;5.55;;;7.70;99.90;;;;;;5015426;28;20030;-71
2022/10/19 03:38:50;;;;;;;41.63;6.80;;;7.80;99.90;;;;;;5013016;28;20045;-71
2022/10/19 03:41:16;;;;;;;30.15;7.30;;;7.90;99.90;;;;;;5014150;28;20428;-71
2022/10/19 03:43:42;;;;;;;67.72;13.32;;;7.90;99.90;;;;;;5020229;28;20041;-71
2022/10/19 03:46:08;;;;;;;76.68;15.27;;;7.90;99.90;;;;;;5035140;28;20033;-71
2022/10/19 03:51:06;;;;;;;66.82;11.88;;;7.80;99.90;;;;;;5057943;23;20053;-73
2022/10/19 03:53:33;;;;;;;66.45;10.73;;;7.70;99.90;;;;;;5030462;28;20029;-73
2022/10/19 03:56:15;;;;;;;39.28;7.75;;;7.60;99.90;;;;;;5015278;28;20057;-73
2022/10/19 03:58:43;;;;;;;43.00;5.80;;;7.60;99.90;;;;;;5014796;28;20049;-73
2022/10/19 04:01:15;;;;;;;34.55;6.07;;;7.60;99.90;;;;;;5015262;28;20022;-73
2022/10/19 04:03:40;;;;;;;41.65;6.28;;;7.60;99.90;;;;;;5019529;28;20024;-73
2022/10/19 04:06:10;;;;;;;47.13;5.65;;;7.80;99.90;;;;;;5015151;28;20532;-73
2022/10/19 04:08:36;;;;;;;25.60;3.88;;;7.90;99.90;;;;;;5015524;28;20029;-73
2022/10/19 04:11:06;;;;;;;36.72;4.22;;;7.90;99.90;;;;;;5015031;28;20025;-73
2022/10/19 04:13:33;;;;;;;28.15;3.65;;;7.90;99.90;;;;;;5015308;28;20061;-73
2022/10/19 04:15:59;;;;;;;18.30;4.15;;;7.80;99.90;;;;;;5026867;28;20061;-73
2022/10/19 04:18:25;;;;;;;32.97;5.22;;;7.60;99.90;;;;;;5013637;28;20030;-73
2022/10/19 04:21:02;;;;;;;19.33;2.65;;;7.50;99.90;;;;;;5025522;28;20587;-73
2022/10/19 04:23:30;;;;;;;29.98;3.65;;;7.30;99.90;;;;;;5034585;28;20037;-73
2022/10/19 04:26:05;;;;;;;31.38;3.30;;;7.30;99.90;;;;;;5034599;28;20021;-73
2022/10/19 04:28:31;;;;;;;15.80;3.10;;;7.30;99.90;;;;;;5031442;28;20037;-73
2022/10/19 04:31:00;;;;;;;13.52;2.78;;;7.20;99.90;;;;;;5034633;28;20084;-73
2022/10/19 04:33:25;;;;;;;15.68;3.17;;;7.10;99.90;;;;;;5028647;28;20040;-73
2022/10/19 04:35:58;;;;;;;17.70;2.85;;;7.10;99.90;;;;;;5034872;28;20041;-73
2022/10/19 04:38:23;;;;;;;15.30;3.03;;;7.10;99.90;;;;;;5026698;28;20388;-73
2022/10/19 04:40:49;;;;;;;15.27;2.50;;;7.10;99.90;;;;;;5014685;28;20100;-73
2022/10/19 04:43:14;;;;;;;16.42;2.65;;;7.00;99.90;;;;;;5014532;28;20105;-73
2022/10/19 04:45:40;;;;;;;14.32;2.58;;;7.00;99.90;;;;;;5014537;28;20029;-73
2022/10/19 04:48:05;;;;;;;18.65;3.80;;;6.90;99.90;;;;;;5014439;28;20381;-73
2022/10/19 04:50:31;;;;;;;14.73;2.63;;;6.80;99.90;;;;;;5029179;28;20038;-73
2022/10/19 04:52:57;;;;;;;14.30;2.85;;;6.60;99.90;;;;;;5034458;28;20044;-73
2022/10/19 04:55:23;;;;;;;11.75;2.20;;;6.50;99.90;;;;;;5024540;28;20401;-72
2022/10/19 04:57:48;;;;;;;8.40;1.98;;;6.30;99.90;;;;;;5014550;28;20048;-72
2022/10/19 05:00:14;;;;;;;16.60;3.58;;;6.20;99.90;;;;;;5016477;28;20055;-72
2022/10/19 05:02:46;;;;;;;19.38;2.47;;;6.10;99.90;;;;;;5034119;28;20029;-72
2022/10/19 05:05:13;;;;;;;16.02;2.22;;;6.00;99.90;;;;;;5033225;28;20409;-72
2022/10/19 05:07:38;;;;;;;10.65;2.83;;;6.10;99.90;;;;;;5014826;28;20030;-72
2022/10/19 05:10:05;;;;;;;14.82;2.50;;;5.90;99.90;;;;;;5014130;28;20385;-72
2022/10/19 05:12:30;;;;;;;23.00;3.10;;;5.90;99.90;;;;;;5025593;28;20040;-72
2022/10/19 05:14:56;;;;;;;13.38;1.98;;;5.80;99.90;;;;;;5034259;28;20037;-72
2022/10/19 05:17:21;;;;;;;11.43;2.60;;;5.70;99.90;;;;;;5026999;28;20034;-72
2022/10/19 05:19:47;;;;;;;18.90;2.70;;;5.70;99.90;;;;;;5013926;28;20056;-72
2022/10/19 05:22:12;;;;;;;12.55;2.53;;;5.60;99.90;;;;;;5014107;28;20026;-72
2022/10/19 05:24:38;;;;;;;14.30;2.70;;;5.60;99.90;;;;;;5014074;28;20068;-72
2022/10/19 05:27:03;;;;;;;11.10;1.83;;;5.70;99.90;;;;;;5016176;28;20062;-72
2022/10/19 05:29:29;;;;;;;11.60;2.17;;;5.60;99.90;;;;;;5033538;28;20032;-72
2022/10/19 05:31:54;;;;;;;8.40;1.00;;;5.60;99.90;;;;;;5033650;28;20026;-72
2022/10/19 05:34:20;;;;;;;7.20;1.45;;;5.60;99.90;;;;;;5019053;28;20030;-72
2022/10/19 05:36:45;;;;;;;5.75;1.35;;;5.50;99.90;;;;;;5013846;28;20033;-72
2022/10/19 05:39:16;;;;;;;5.80;1.73;;;5.50;99.90;;;;;;5014542;28;20041;-72
2022/10/19 05:41:43;;;;;;;3.33;1.50;;;5.50;99.90;;;;;;5014208;28;20030;-72
2022/10/19 05:44:14;;;;;;;6.57;1.70;;;5.50;99.90;;;;;;5020286;28;20025;-72
2022/10/19 05:46:40;;;;;;;3.03;1.50;;;5.50;99.90;;;;;;5034198;28;20018;-72
2022/10/19 05:49:05;;;;;;;3.20;1.48;;;5.40;99.90;;;;;;5023944;28;20032;-72
2022/10/19 05:51:31;;;;;;;5.13;1.48;;;5.40;99.90;;;;;;5031491;28;20025;-72
2022/10/19 05:53:56;;;;;;;4.68;1.85;;;5.30;99.90;;;;;;5023034;28;20053;-72
2022/10/19 05:56:25;;;;;;;8.60;2.13;;;5.20;99.90;;;;;;5019621;28;20380;-72
2022/10/19 05:58:50;;;;;;;23.08;3.13;;;5.20;99.90;;;;;;5028480;28;20026;-72
2022/10/19 06:01:20;;;;;;;8.18;1.92;;;5.20;99.90;;;;;;5019438;28;20088;-72
2022/10/19 06:03:49;;;;;;;5.10;1.88;;;5.10;99.90;;;;;;5023293;28;20025;-72
2022/10/19 06:06:15;;;;;;;6.15;2.35;;;5.00;99.90;;;;;;5025210;28;20033;-72
2022/10/19 06:08:40;;;;;;;15.30;4.72;;;5.00;99.90;;;;;;5013644;28;20113;-72
2022/10/19 06:11:09;;;;;;;18.25;4.18;;;5.00;99.90;;;;;;5013647;28;20022;-72
2022/10/19 06:13:36;;;;;;;8.35;2.70;;;5.00;99.90;;;;;;5013785;28;20021;-72
2022/10/19 06:16:02;;;;;;;12.93;3.05;;;4.90;99.90;;;;;;5013603;28;20073;-72
2022/10/19 06:18:28;;;;;;;11.85;2.13;;;4.90;99.90;;;;;;5013588;28;20018;-72
2022/10/19 06:20:54;;;;;;;6.72;2.42;;;4.80;99.90;;;;;;5014779;28;20080;-72
2022/10/19 06:23:19;;;;;;;16.50;2.58;;;4.80;99.90;;;;;;5016444;28;20034;-72
2022/10/19 06:25:45;;;;;;;14.05;3.40;;;4.70;99.90;;;;;;5017279;28;20513;-72
2022/10/19 06:28:10;;;;;;;19.33;3.25;;;4.70;99.90;;;;;;5024216;28;20105;-71
2022/10/19 06:30:40;;;;;;;20.63;4.45;;;4.70;99.90;;;;;;5035997;28;20108;-72
2022/10/19 06:33:06;;;;;;;13.15;3.33;;;4.80;99.90;;;;;;5032917;28;20473;-73
2022/10/19 06:35:32;;;;;;;7.63;2.75;;;4.80;99.90;;;;;;5036897;28;20040;-73
2022/10/19 06:37:58;;;;;;;9.88;2.30;;;4.90;99.90;;;;;;5024233;28;20540;-72
2022/10/19 06:40:24;;;;;;;4.20;1.65;;;4.90;99.90;;;;;;5016894;28;20030;-72
2022/10/19 06:42:49;;;;;;;5.15;1.55;;;4.90;99.90;;;;;;5017035;28;20026;-72
2022/10/19 06:45:15;;;;;;;4.55;2.00;;;5.00;99.90;;;;;;5016731;28;20392;-72
2022/10/19 06:47:41;;;;;;;7.18;2.28;;;5.00;99.90;;;;;;5015898;28;20038;-71
2022/10/19 06:50:06;;;;;;;13.18;2.33;;;5.00;99.90;;;;;;5036632;28;20512;-72
2022/10/19 06:52:33;;;;;;;7.80;2.15;;;5.00;99.90;;;;;;5036563;28;20029;-73
2022/10/19 06:54:59;;;;;;;8.35;2.25;;;5.10;99.90;;;;;;5034378;28;20030;-72
2022/10/19 06:57:25;;;;;;;8.98;2.00;;;5.20;99.90;;;;;;5036350;28;20033;-72
2022/10/19 06:59:50;;;;;;;3.53;2.03;;;5.20;99.90;;;;;;5025676;28;20462;-73
2022/10/19 07:02:16;;;;;;;8.10;1.73;;;5.30;99.90;;;;;;5016495;28;20084;-73
2022/10/19 07:04:41;;;;;;;4.90;2.10;;;5.40;99.90;;;;;;5019374;28;20033;-73
2022/10/19 07:07:07;;;;;;;3.55;1.65;;;5.40;99.90;;;;;;5016343;28;20417;-73
2022/10/19 07:09:33;;;;;;;9.00;1.75;;;5.60;99.90;;;;;;5016404;28;20395;-73
2022/10/19 07:11:58;;;;;;;8.52;2.33;;;5.80;99.90;;;;;;5026717;28;20440;-73
2022/10/19 07:14:24;;;;;;;6.78;1.90;;;6.00;99.90;;;;;;5035921;28;20530;-73
2022/10/19 07:16:50;;;;;;;7.20;2.50;;;6.10;99.90;;;;;;5024494;28;20026;-73
2022/10/19 07:19:16;;;;;;;15.82;2.58;;;6.30;99.90;;;;;;5015975;28;20018;-72
2022/10/19 07:21:42;;;;;;;11.02;2.67;;;6.50;99.90;;;;;;5016840;28;20058;-72
2022/10/19 07:24:08;;;;;;;21.65;3.60;;;6.70;99.90;;;;;;5034896;28;20018;-72
2022/10/19 07:26:34;;;;;;;14.77;3.50;;;7.00;99.90;;;;;;5034559;28;20026;-73
2022/10/19 07:29:01;;;;;;;24.30;4.53;;;7.20;99.90;;;;;;5033560;28;20489;-72
2022/10/19 07:31:28;;;;;;;19.45;4.20;;;7.50;99.90;;;;;;5035474;28;20029;-73
2022/10/19 07:33:56;;;;;;;27.23;4.43;;;7.70;99.90;;;;;;5033507;28;20112;-72
2022/10/19 07:36:22;;;;;;;23.40;3.88;;;7.90;99.90;;;;;;5015551;28;20041;-72
2022/10/19 07:38:48;;;;;;;16.38;4.32;;;8.10;99.90;;;;;;5015784;28;20022;-72
2022/10/19 07:41:16;;;;;;;20.17;4.93;;;8.20;99.90;;;;;;5017859;28;20036;-72
2022/10/19 07:43:43;;;;;;;21.52;5.05;;;8.40;99.90;;;;;;5015368;28;20500;-72
2022/10/19 07:46:17;;;;;;;23.20;4.78;;;8.60;99.90;;;;;;5015510;28;20032;-72
2022/10/19 07:48:43;;;;;;;;;;;8.70;99.90;;;;;;5016071;28;20503;-72
2022/10/19 07:51:11;;;;;;;23.40;4.85;;;8.80;99.90;;;;;;5015663;28;20007;-72
2022/10/19 07:53:37;;;;;;;18.13;4.82;;;8.90;99.90;;;;;;5015737;28;20026;-72
2022/10/19 07:56:15;;;;;;;27.65;4.93;;;9.10;99.90;;;;;;5015132;28;20108;-72
2022/10/19 07:58:41;;;;;;;26.95;4.43;;;9.20;99.90;;;;;;5015907;28;20030;-71
2022/10/19 08:01:12;;;;;;;15.68;4.93;;;9.30;99.90;;;;;;5023248;28;20021;-72
2022/10/19 08:03:38;;;;;;;16.17;5.05;;;9.50;99.90;;;;;;5029095;28;20030;-72
2022/10/19 08:06:06;;;;;;;13.73;4.30;;;9.60;99.90;;;;;;5015202;28;20033;-72
2022/10/19 08:08:32;;;;;;;11.57;3.85;;;9.70;99.90;;;;;;5015304;28;20033;-72
2022/10/19 08:11:06;;;;;;;10.95;4.25;;;9.70;99.90;;;;;;5034721;28;20045;-72
2022/10/19 08:13:31;;;;;;;;;;;9.90;99.90;;;;;;5035509;28;20022;-72
2022/10/19 08:15:57;;;;;;;14.93;5.35;;;10.00;99.90;;;;;;5030276;28;19915;-72
2022/10/19 08:18:22;;;;;;;21.52;4.82;;;10.10;99.90;;;;;;5025013;28;20058;-72
2022/10/19 08:20:48;;;;;;;23.95;6.30;;;10.10;99.90;;;;;;5014838;28;20077;-72
2022/10/19 08:23:14;;;;;;;15.88;6.32;;;10.20;99.90;;;;;;5017162;28;20056;-72
2022/10/19 08:25:40;;;;;;;20.00;5.45;;;10.30;99.90;;;;;;5013706;28;20030;-72
2022/10/19 08:28:05;;;;;;;28.08;5.90;;;10.40;99.90;;;;;;5016943;28;20161;-72
2022/10/19 08:30:34;;;;;;;21.35;5.32;;;10.50;99.90;;;;;;5014660;28;20037;-72
2022/10/19 08:32:59;;;;;;;13.93;4.75;;;10.50;99.90;;;;;;5015494;28;20033;-71
2022/10/19 08:35:25;;;;;;;17.23;4.32;;;10.60;99.90;;;;;;5014549;28;20030;-71
2022/10/19 08:37:50;;;;;;;15.93;4.70;;;10.60;99.90;;;;;;5014849;28;20029;-72
2022/10/19 08:40:19;;;;;;;18.90;4.30;;;10.60;99.90;;;;;;5031636;28;20432;-72
2022/10/19 08:43:01;;;;;;;17.38;4.82;;;10.60;99.90;;;;;;5033814;28;20029;-72
2022/10/19 08:45:49;;;;;;;13.65;3.85;;;10.70;99.90;;;;;;5016187;28;20022;-72
2022/10/19 08:48:26;;;;;;;16.83;3.80;;;10.80;99.90;;;;;;5015175;28;20032;-72
2022/10/19 08:50:52;;;;;;;11.20;3.67;;;10.80;99.90;;;;;;5016534;28;20460;-72
2022/10/19 08:53:41;;;;;;;9.23;2.95;;;10.90;99.90;;;;;;5013152;28;20026;-72
2022/10/19 08:56:16;;;;;;;17.80;3.58;;;11.10;99.90;;;;;;5029352;28;20061;-72
2022/10/19 08:58:59;;;;;;;9.95;2.85;;;11.10;99.90;;;;;;5034006;28;20465;-72
2022/10/19 09:01:58;;;;;;;11.85;3.55;;;11.30;99.90;;;;;;5022389;28;20026;-72
2022/10/19 09:04:29;;;;;;;12.27;3.05;;;11.40;99.90;;;;;;5014636;28;20041;-72
2022/10/19 09:07:36;;;;;;;13.70;2.97;;;11.50;99.90;;;;;;5016302;28;20030;-72
2022/10/19 09:10:16;;;;;;;17.65;3.90;;;11.50;99.90;;;;;;5014153;28;20451;-72
2022/10/19 09:12:51;;;;;;;16.65;2.30;;;11.70;99.90;;;;;;5015010;28;20030;-72
2022/10/19 09:15:21;;;;;;;13.35;2.00;;;11.70;99.90;;;;;;5013936;28;20026;-72
2022/10/19 09:17:46;;;;;;;10.35;1.90;;;11.90;99.90;;;;;;5016239;28;20030;-72
2022/10/19 09:20:19;;;;;;;10.10;1.73;;;11.90;99.90;;;;;;5014058;28;20030;-72
2022/10/19 09:22:49;;;;;;;9.70;1.98;;;12.00;99.90;;;;;;5025464;28;20025;-72
2022/10/19 09:25:20;;;;;;;9.73;2.60;;;12.10;99.90;;;;;;5033768;28;20038;-72
2022/10/19 09:28:23;;;;;;;7.20;2.20;;;12.20;99.90;;;;;;5028059;28;20026;-72
2022/10/19 09:30:53;;;;;;;11.43;1.83;;;12.40;99.90;;;;;;5013858;28;20037;-72
2022/10/19 09:33:29;;;;;;;6.72;1.88;;;12.40;99.90;;;;;;5014380;28;20033;-72
2022/10/19 09:35:58;;;;;;;11.52;1.85;;;12.60;99.90;;;;;;5014133;28;20084;-72
2022/10/19 09:38:27;;;;;;;8.10;2.42;;;12.60;99.90;;;;;;5018748;28;20469;-72
2022/10/19 09:40:52;;;;;;;11.45;1.77;;;12.80;99.90;;;;;;5033824;28;20029;-72
2022/10/19 09:43:20;;;;;;;10.27;1.05;;;12.90;99.90;;;;;;5032526;28;20384;-71
2022/10/19 09:46:01;;;;;;;9.75;1.58;;;13.00;99.90;;;;;;5030702;28;20083;-72
2022/10/19 09:48:48;;;;;;;2.53;1.05;;;13.10;99.90;;;;;;5033808;28;20111;-72
2022/10/19 09:51:15;;;;;;;9.25;1.35;;;13.20;99.90;;;;;;5054347;23;20064;-70
2022/10/19 09:53:51;;;;;;;6.93;1.38;;;13.30;99.90;;;;;;5033478;28;20025;-70
2022/10/19 09:56:27;;;;;;;3.75;1.05;;;13.40;99.90;;;;;;5032720;28;20116;-70
2022/10/19 09:58:56;;;;;;;7.45;1.20;;;13.60;99.90;;;;;;5037247;28;20492;-70
2022/10/19 10:01:33;;;;;;;5.47;1.25;;;13.50;99.90;;;;;;5027795;28;20052;-70
2022/10/19 10:04:07;;;;;;;5.15;1.30;;;13.60;99.90;;;;;;5027485;28;20021;-70
2022/10/19 10:06:34;;;;;;;2.97;1.10;;;13.60;99.90;;;;;;5030773;28;20026;-70
2022/10/19 10:08:59;;;;;;;6.25;1.30;;;13.70;99.90;;;;;;5033467;28;20022;-70
2022/10/19 10:11:53;;;;;;;6.18;1.30;;;13.80;99.90;;;;;;5034265;28;20027;-70
2022/10/19 10:14:35;;;;;;;4.00;1.30;;;13.90;99.90;;;;;;5022785;28;20037;-70
2022/10/19 10:17:11;;;;;;;6.15;1.15;;;14.00;99.90;;;;;;5016932;28;20037;-70
2022/10/19 10:20:00;;;;;;;7.03;1.00;;;13.90;99.90;;;;;;5016810;28;20026;-70
2022/10/19 10:22:29;;;;;;;6.03;0.90;;;13.90;99.90;;;;;;5026520;28;20017;-71
2022/10/19 10:24:55;;;;;;;6.90;1.10;;;14.00;99.90;;;;;;5036830;28;20035;-70
2022/10/19 10:27:52;;;;;;;4.00;1.33;;;13.90;99.90;;;;;;5034723;28;20029;-71
2022/10/19 10:30:17;;;;;;;4.03;1.60;;;13.80;99.90;;;;;;5036495;28;20029;-71
2022/10/19 10:32:49;;;;;;;1.67;0.68;;;13.90;99.90;;;;;;5033408;28;20034;-71
2022/10/19 10:35:34;;;;;;;2.67;0.90;;;14.10;99.90;;;;;;5015363;28;20205;-71
2022/10/19 10:38:15;;;;;;;2.63;0.90;;;14.30;99.90;;;;;;5019279;28;20028;-71
2022/10/19 10:41:08;;;;;;;1.90;0.90;;;14.60;99.90;;;;;;5034593;28;20087;-71
2022/10/19 10:43:47;;;;;;;14.40;1.23;;;14.90;99.90;;;;;;5033453;28;20062;-71
2022/10/19 10:46:18;;;;;;;2.75;0.65;;;15.00;99.90;;;;;;5015226;28;20457;-71
2022/10/19 10:48:51;;;;;;;1.63;0.70;;;15.10;99.90;;;;;;5016987;28;20041;-71
2022/10/19 10:51:27;;;;;;;2.30;0.70;;;15.10;99.90;;;;;;5034553;28;20376;-70
2022/10/19 10:54:17;;;;;;;3.97;1.27;;;15.30;99.90;;;;;;5036331;28;20026;-71
2022/10/19 10:56:53;;;;;;;6.68;0.95;;;15.40;99.90;;;;;;5036124;28;20044;-71
2022/10/19 10:59:27;;;;;;;9.15;1.13;;;15.40;99.90;;;;;;5036350;28;20104;-70
2022/10/19 11:02:13;;;;;;;4.85;0.90;;;15.50;99.90;;;;;;5019709;28;20022;-71
2022/10/19 11:04:45;;;;;;;2.75;0.98;;;15.60;99.90;;;;;;5018531;28;20061;-71
2022/10/19 11:07:20;;;;;;;6.72;1.05;;;15.80;99.90;;;;;;5015898;28;20535;-70
2022/10/19 11:09:52;;;;;;;2.67;0.80;;;15.70;99.90;;;;;;5025416;28;20037;-70
2022/10/19 11:12:33;;;;;;;2.85;0.50;;;15.90;99.90;;;;;;5034500;28;20032;-71
2022/10/19 11:15:32;;;;;;;2.78;0.80;;;16.00;99.90;;;;;;5033989;28;20053;-70
2022/10/19 11:18:19;;;;;;;4.30;0.95;;;16.10;99.90;;;;;;5032477;28;20420;-70
2022/10/19 11:20:57;;;;;;;2.08;0.52;;;16.20;99.90;;;;;;5035834;28;20117;-71
2022/10/19 11:23:38;;;;;;;3.42;0.60;;;16.30;99.90;;;;;;5031094;28;20029;-71
2022/10/19 11:26:30;;;;;;;3.38;0.93;;;16.30;99.90;;;;;;5035846;28;20043;-71
2022/10/19 11:29:23;;;;;;;2.35;0.77;;;16.50;99.90;;;;;;5021211;28;20036;-71
2022/10/19 11:31:56;;;;;;;1.55;0.70;;;16.60;99.90;;;;;;5016013;28;20033;-71
2022/10/19 11:34:40;;;;;;;3.60;0.80;;;16.50;99.90;;;;;;5015499;28;20124;-71
2022/10/19 11:37:23;;;;;;;3.30;0.60;;;16.60;99.90;;;;;;5015206;28;20022;-71
2022/10/19 11:40:12;;;;;;;3.73;0.60;;;16.70;99.90;;;;;;5029744;28;20022;-71
2022/10/19 11:42:47;;;;;;;4.45;0.65;;;16.90;99.90;;;;;;5035354;28;20284;-71
2022/10/19 11:45:29;;;;;;;4.30;0.98;;;17.00;99.90;;;;;;5020336;28;20433;-71
2022/10/19 11:48:08;;;;;;;1.77;0.65;;;17.00;99.90;;;;;;5016068;28;20430;-71
2022/10/19 11:51:00;;;;;;;4.13;0.80;;;17.00;99.90;;;;;;5013869;28;20493;-71
2022/10/19 11:54:03;;;;;;;0.40;0.40;;;17.20;99.90;;;;;;5015659;28;20492;-71
2022/10/19 11:56:45;;;;;;;0.40;0.40;;;17.20;99.90;;;;;;5032643;28;20025;-71
2022/10/19 11:59:35;;;;;;;0.65;0.40;;;17.10;99.90;;;;;;5035162;28;20037;-71
2022/10/19 12:02:22;;;;;;;2.88;0.50;;;17.10;99.90;;;;;;5034985;28;20496;-71
2022/10/19 12:05:03;;;;;;;1.10;0.52;;;17.10;99.90;;;;;;5035052;28;20026;-69
2022/10/19 12:07:47;;;;;;;2.75;0.55;;;17.30;99.90;;;;;;5035109;28;20029;-69
2022/10/19 12:10:16;;;;;;;2.35;0.57;;;17.00;99.90;;;;;;5034742;28;20028;-69
2022/10/19 12:12:48;;;;;;;2.78;0.65;;;17.10;99.90;;;;;;5034853;28;20018;-69
2022/10/19 12:15:22;;;;;;;1.13;0.30;;;17.10;99.90;;;;;;5034402;28;20021;-70
2022/10/19 12:17:51;;;;;;;2.53;0.40;;;17.40;99.90;;;;;;5034045;28;20148;-70
2022/10/19 12:20:27;;;;;;;8.60;0.57;;;17.50;99.90;;;;;;5019572;28;20032;-70
2022/10/19 12:22:53;;;;;;;4.35;0.55;;;17.70;99.90;;;;;;5025696;28;20026;-70
2022/10/19 12:25:20;;;;;;;0.82;0.38;;;18.10;99.90;;;;;;5034644;28;20031;-70
2022/10/19 12:27:47;;;;;;;6.38;0.70;;;18.30;99.90;;;;;;5025099;28;20455;-70
2022/10/19 12:30:18;;;;;;;4.22;0.60;;;18.80;99.90;;;;;;5014598;28;20094;-70
2022/10/19 12:32:53;;;;;;;2.20;0.40;;;19.30;99.90;;;;;;5020609;28;20041;-70
2022/10/19 12:35:23;;;;;;;0.30;0.30;;;19.80;99.90;;;;;;5034760;28;20350;-70
2022/10/19 12:38:04;;;;;;;1.23;0.32;;;20.40;99.90;;;;;;5034053;28;20112;-70
2022/10/19 12:40:48;;;;;;;0.85;0.35;;;21.00;99.90;;;;;;5014572;28;20092;-70
2022/10/19 12:43:43;;;;;;;0.30;0.13;;;21.50;99.90;;;;;;5013285;28;20026;-70
2022/10/19 12:46:21;;;;;;;1.63;0.63;;;21.50;99.90;;;;;;5012931;28;20033;-70
2022/10/19 12:49:25;;;;;;;0.65;0.43;;;21.60;99.90;;;;;;5014284;28;20022;-70
2022/10/19 12:51:51;;;;;;;1.23;0.40;;;21.80;99.90;;;;;;5014896;28;20030;-70
2022/10/19 12:54:22;;;;;;;1.48;0.25;;;22.00;99.90;;;;;;5015245;28;20030;-70
2022/10/19 12:56:52;;;;;;;0.73;0.30;;;21.90;99.90;;;;;;5034213;28;20116;-70
2022/10/19 12:59:31;;;;;;;3.50;0.30;;;21.80;99.90;;;;;;5033938;28;20511;-70
2022/10/19 13:01:58;;;;;;;1.20;0.45;;;22.20;99.90;;;;;;5034013;28;20354;-69
2022/10/19 13:04:30;;;;;;;1.52;0.30;;;21.90;99.90;;;;;;5033902;28;20524;-69
2022/10/19 13:06:55;;;;;;;0.30;0.30;;;22.00;99.90;;;;;;5033544;28;20087;-69
2022/10/19 13:09:36;;;;;;;0.65;0.40;;;21.80;99.90;;;;;;5033095;28;20037;-70
2022/10/19 13:12:14;;;;;;;0.77;0.30;;;21.90;99.90;;;;;;5033882;28;20028;-70